Kalenakliyat 2 — TCBA7 — position and weather

sailwx.info

Track history (hours):
 
Tides and Currents Weather Stations Pressure Air Temp Water Temp Dewpoint Dewpoint Depression Visibility Wind Speed Wind Dir Waves Ship Positions

Kalenakliyat 2

Last reported at 2014-Sep-01 13:33 UTC. Time now 2014-Sep-01 13:55 UTC.
Position N 41°51' E 035°55'.

Length 72 m; draft 4.3 m.

Type: Cargo ship. MMSI: 271002023.

Date/timePositionNaut miles runAvg speedWind from/ knotsBaromVisibWave heightAir tempDewpointWater temp
2014-Sep-01 13:33N 41°51' E 035°55'2310.1
2014-Sep-01 11:17N 41°43' E 036°23'8 9.4
2014-Sep-01 10:28N 41°40' E 036°33'  
2014-Aug-27 08:15N 41°15' E 029°40'6 8.8
2014-Aug-27 07:33N 41°15' E 029°32'29 6.4
2014-Aug-27 03:05N 40°59' E 029°00'4 6.7
2014-Aug-27 02:33N 40°56' E 028°59'8 7.8
2014-Aug-27 01:33N 40°50' E 028°52'9 8.8
2014-Aug-27 00:32N 40°45' E 028°42'  
2014-Aug-22 16:27N 40°48' E 028°58'8 8.9
2014-Aug-22 15:33N 40°50' E 029°09'4 3.7
2014-Aug-22 14:33N 40°53' E 029°12'  
Track history (hours):
 
Tides and Currents Weather Stations Pressure Air Temp Water Temp Dewpoint Dewpoint Depression Visibility Wind Speed Wind Dir Waves Ship Positions

Kalenakliyat 2

Last reported at 2014-Sep-01 13:33 UTC. Time now 2014-Sep-01 13:55 UTC.
Position N 41°51' E 035°55'.

Length 72 m; draft 4.3 m.

Type: Cargo ship. MMSI: 271002023.

Date/timePositionNaut miles runAvg speedWind from/ knotsBaromVisibWave heightAir tempDewpointWater temp
2014-Sep-01 13:33N 41°51' E 035°55'2310.1
2014-Sep-01 11:17N 41°43' E 036°23'8 9.4
2014-Sep-01 10:28N 41°40' E 036°33'  
2014-Aug-27 08:15N 41°15' E 029°40'6 8.8
2014-Aug-27 07:33N 41°15' E 029°32'29 6.4
2014-Aug-27 03:05N 40°59' E 029°00'4 6.7
2014-Aug-27 02:33N 40°56' E 028°59'8 7.8
2014-Aug-27 01:33N 40°50' E 028°52'9 8.8
2014-Aug-27 00:32N 40°45' E 028°42'  
2014-Aug-22 16:27N 40°48' E 028°58'8 8.9
2014-Aug-22 15:33N 40°50' E 029°09'4 3.7
2014-Aug-22 14:33N 40°53' E 029°12'  

Dump ship's entire track history